createdAt,value
2019-03-13T00:00:30.543Z,0.00
2019-03-13T00:01:30.528Z,0.00
2019-03-13T00:02:30.590Z,0.00
2019-03-13T00:03:30.512Z,0.00
2019-03-13T00:04:30.495Z,0.00
2019-03-13T00:05:30.496Z,0.00
2019-03-13T00:06:30.466Z,0.00
2019-03-13T00:07:30.460Z,0.00
2019-03-13T00:08:30.502Z,0.00
2019-03-13T00:09:30.441Z,0.00
2019-03-13T00:10:32.594Z,0.00
2019-03-13T00:11:30.432Z,0.00
2019-03-13T00:12:30.442Z,0.00
2019-03-13T00:13:30.411Z,0.00
2019-03-13T00:14:30.441Z,0.00
2019-03-13T00:15:30.374Z,0.00
2019-03-13T00:16:30.361Z,0.00
2019-03-13T00:17:30.373Z,0.00
2019-03-13T00:18:30.358Z,0.00
2019-03-13T00:19:30.326Z,0.00
2019-03-13T00:20:30.384Z,0.00
2019-03-13T00:21:30.329Z,0.00
2019-03-13T00:22:30.297Z,0.00
2019-03-13T00:23:30.294Z,0.00
2019-03-13T00:24:30.295Z,0.00
2019-03-13T00:25:30.287Z,0.00
2019-03-13T00:26:30.299Z,0.00
2019-03-13T00:27:30.243Z,0.00
2019-03-13T00:28:30.231Z,0.00
2019-03-13T00:29:30.216Z,0.00
2019-03-13T00:30:30.238Z,0.00
2019-03-13T00:31:30.209Z,0.00
2019-03-13T00:32:30.250Z,0.00
2019-03-13T00:33:30.196Z,0.00
2019-03-13T00:34:30.172Z,0.00
2019-03-13T00:35:30.164Z,0.00
2019-03-13T00:36:30.146Z,0.00
2019-03-13T00:37:30.165Z,0.00
2019-03-13T00:38:30.182Z,0.00
2019-03-13T00:39:30.112Z,0.00
2019-03-13T00:40:30.108Z,0.00
2019-03-13T00:41:30.095Z,0.00
2019-03-13T00:42:30.092Z,0.00
2019-03-13T00:43:30.069Z,0.00
2019-03-13T00:44:30.115Z,0.00
2019-03-13T00:45:30.059Z,0.00
2019-03-13T00:46:30.049Z,0.00
2019-03-13T00:47:30.039Z,0.00
2019-03-13T00:48:30.019Z,0.00
2019-03-13T00:49:30.010Z,0.00
2019-03-13T00:50:31.575Z,0.00
2019-03-13T00:51:29.984Z,0.00
2019-03-13T00:52:29.967Z,0.00
2019-03-13T00:53:29.955Z,0.00
2019-03-13T00:54:29.999Z,0.00
2019-03-13T00:55:29.987Z,0.00
2019-03-13T00:56:29.953Z,0.00
2019-03-13T00:57:29.939Z,0.00
2019-03-13T00:58:29.934Z,0.00
2019-03-13T00:59:29.898Z,0.00
2019-03-13T01:00:29.900Z,0.00
2019-03-13T01:01:29.874Z,0.00
2019-03-13T01:02:29.909Z,0.00
2019-03-13T01:03:29.862Z,0.00
2019-03-13T01:04:29.862Z,0.00
2019-03-13T01:05:29.853Z,0.00
2019-03-13T01:06:29.830Z,0.00
2019-03-13T01:07:29.807Z,0.00
2019-03-13T01:08:29.845Z,0.00
2019-03-13T01:09:29.810Z,0.00
2019-03-13T01:10:29.788Z,0.00
2019-03-13T01:11:29.791Z,0.00
2019-03-13T01:12:29.770Z,0.00
2019-03-13T01:13:29.761Z,0.00
2019-03-13T01:14:29.778Z,0.00
2019-03-13T01:15:29.728Z,0.00
2019-03-13T01:16:29.716Z,0.00
2019-03-13T01:17:29.705Z,0.00
2019-03-13T01:18:29.702Z,0.00
2019-03-13T01:19:29.684Z,0.00
2019-03-13T01:20:29.701Z,0.00
2019-03-13T01:21:29.655Z,0.00
2019-03-13T01:22:29.645Z,0.00
2019-03-13T01:23:29.649Z,0.00
2019-03-13T01:24:29.653Z,0.00
2019-03-13T01:25:29.644Z,0.00
2019-03-13T01:26:29.649Z,0.00
2019-03-13T01:27:29.593Z,0.00
2019-03-13T01:28:29.611Z,0.00
2019-03-13T01:29:29.580Z,0.00
2019-03-13T01:30:29.570Z,0.00
2019-03-13T01:31:29.576Z,0.00
2019-03-13T01:32:29.578Z,0.00
2019-03-13T01:33:29.560Z,0.00
2019-03-13T01:34:29.523Z,0.00
2019-03-13T01:35:29.507Z,0.00
2019-03-13T01:36:29.506Z,0.00
2019-03-13T01:37:29.548Z,0.00
2019-03-13T01:38:29.506Z,0.00
2019-03-13T01:39:29.470Z,0.00
2019-03-13T01:40:29.453Z,0.00
2019-03-13T01:41:29.449Z,0.00
2019-03-13T01:42:29.427Z,0.00
2019-03-13T01:43:29.413Z,0.00
2019-03-13T01:44:29.449Z,0.00
2019-03-13T01:45:29.394Z,0.00
2019-03-13T01:46:29.381Z,0.00
2019-03-13T01:47:29.372Z,0.00
2019-03-13T01:48:29.361Z,0.00
2019-03-13T01:49:29.350Z,0.00
2019-03-13T01:50:29.380Z,0.00
2019-03-13T01:51:29.324Z,0.00
2019-03-13T01:52:32.189Z,0.00
2019-03-13T01:53:29.330Z,0.00
2019-03-13T01:54:29.297Z,0.00
2019-03-13T01:55:29.359Z,0.00
2019-03-13T01:56:29.323Z,0.00
2019-03-13T01:57:29.293Z,0.00
2019-03-13T01:58:29.306Z,0.00
2019-03-13T01:59:29.299Z,0.00
2019-03-13T02:00:29.233Z,0.00
2019-03-13T02:01:29.244Z,0.00
2019-03-13T02:02:29.237Z,0.00
2019-03-13T02:03:29.200Z,0.00
2019-03-13T02:04:29.243Z,0.00
2019-03-13T02:05:29.198Z,0.00
2019-03-13T02:06:29.171Z,0.00
2019-03-13T02:07:29.168Z,0.00
2019-03-13T02:08:29.210Z,0.00
2019-03-13T02:09:29.153Z,0.00
2019-03-13T02:10:29.129Z,0.00
2019-03-13T02:11:29.122Z,0.00
2019-03-13T02:12:29.099Z,0.00
2019-03-13T02:13:29.089Z,0.00
2019-03-13T02:14:29.121Z,0.00
2019-03-13T02:15:29.081Z,0.00
2019-03-13T02:16:29.070Z,0.00
2019-03-13T02:17:29.062Z,0.00
2019-03-13T02:18:29.050Z,0.00
2019-03-13T02:19:29.029Z,0.00
2019-03-13T02:20:29.069Z,0.00
2019-03-13T02:21:29.003Z,0.00
2019-03-13T02:22:28.992Z,0.00
2019-03-13T02:23:28.990Z,0.00
2019-03-13T02:24:28.989Z,0.00
2019-03-13T02:25:28.997Z,0.00
2019-03-13T02:26:29.013Z,0.00
2019-03-13T02:27:28.958Z,0.00
2019-03-13T02:28:28.975Z,0.00
2019-03-13T02:29:28.924Z,0.00
2019-03-13T02:30:29.177Z,0.00
2019-03-13T02:31:28.921Z,0.00
2019-03-13T02:32:28.982Z,0.00
2019-03-13T02:33:28.879Z,0.00
2019-03-13T02:34:28.914Z,0.00
2019-03-13T02:35:28.869Z,0.00
2019-03-13T02:36:28.845Z,0.00
2019-03-13T02:37:28.832Z,0.00
2019-03-13T02:38:28.845Z,0.00
2019-03-13T02:39:28.857Z,0.00
2019-03-13T02:40:28.814Z,0.00
2019-03-13T02:41:28.788Z,0.00
2019-03-13T02:42:28.773Z,0.00
2019-03-13T02:43:28.768Z,0.00
2019-03-13T02:44:28.784Z,0.00
2019-03-13T02:45:28.745Z,0.00
2019-03-13T02:46:28.738Z,0.00
2019-03-13T02:47:28.736Z,0.00
2019-03-13T02:48:28.725Z,0.00
2019-03-13T02:49:28.703Z,0.00
2019-03-13T02:50:28.725Z,0.00
2019-03-13T02:51:28.672Z,0.00
2019-03-13T02:52:28.697Z,0.00
2019-03-13T02:53:28.656Z,0.00
2019-03-13T02:54:28.647Z,0.00
2019-03-13T02:55:28.638Z,0.00
2019-03-13T02:56:28.660Z,0.00
2019-03-13T02:57:28.622Z,0.00
2019-03-13T02:58:28.650Z,0.00
2019-03-13T02:59:28.608Z,0.00
2019-03-13T03:00:28.578Z,0.00
2019-03-13T03:01:28.579Z,0.00
2019-03-13T03:02:28.592Z,0.00
2019-03-13T03:03:28.557Z,0.00
2019-03-13T03:04:28.544Z,0.00
2019-03-13T03:05:28.528Z,0.00
2019-03-13T03:06:28.513Z,0.00
2019-03-13T03:07:28.582Z,0.00
2019-03-13T03:08:28.523Z,0.00
2019-03-13T03:09:28.479Z,0.00
2019-03-13T03:10:28.468Z,0.00
2019-03-13T03:11:28.459Z,0.00
2019-03-13T03:12:28.500Z,0.00
2019-03-13T03:13:28.452Z,0.00
2019-03-13T03:14:28.460Z,0.00
2019-03-13T03:15:28.413Z,0.00
2019-03-13T03:16:28.418Z,0.00
2019-03-13T03:17:28.390Z,0.00
2019-03-13T03:18:28.414Z,0.00
2019-03-13T03:19:28.388Z,0.00
2019-03-13T03:20:28.396Z,0.00
2019-03-13T03:21:28.374Z,0.00
2019-03-13T03:22:28.489Z,0.00
2019-03-13T03:23:28.328Z,0.00
2019-03-13T03:24:28.338Z,0.00
2019-03-13T03:25:28.313Z,0.00
2019-03-13T03:26:28.435Z,0.00
2019-03-13T03:27:28.302Z,0.00
2019-03-13T03:28:28.281Z,0.00
2019-03-13T03:29:28.268Z,0.00
2019-03-13T03:30:28.250Z,0.00
2019-03-13T03:31:28.259Z,0.00
2019-03-13T03:32:28.261Z,0.00
2019-03-13T03:33:28.225Z,0.00
2019-03-13T03:34:28.311Z,0.00
2019-03-13T03:35:28.215Z,0.00
2019-03-13T03:36:28.217Z,0.00
2019-03-13T03:37:28.321Z,0.00
2019-03-13T03:38:28.289Z,0.00
2019-03-13T03:39:28.151Z,0.00
2019-03-13T03:40:28.150Z,0.00
2019-03-13T03:41:28.135Z,0.00
2019-03-13T03:42:28.128Z,0.00
2019-03-13T03:43:40.115Z,0.00
2019-03-13T03:44:29.138Z,0.00
2019-03-13T03:45:28.103Z,0.00
2019-03-13T03:46:28.169Z,0.00
2019-03-13T03:47:28.079Z,0.00
2019-03-13T03:48:28.058Z,0.00
2019-03-13T03:49:28.052Z,0.00
2019-03-13T03:50:28.069Z,0.00
2019-03-13T03:51:28.037Z,0.00
2019-03-13T03:52:28.008Z,0.00
2019-03-13T03:53:28.003Z,0.00
2019-03-13T03:54:27.993Z,0.00
2019-03-13T03:55:27.996Z,0.00
2019-03-13T03:56:27.999Z,0.00
2019-03-13T03:57:27.968Z,0.00
2019-03-13T03:58:29.688Z,0.00
2019-03-13T03:59:27.953Z,0.00
2019-03-13T04:00:27.951Z,0.00
2019-03-13T04:01:27.911Z,0.00
2019-03-13T04:02:27.936Z,0.00
2019-03-13T04:03:27.924Z,0.00
2019-03-13T04:04:27.883Z,0.00
2019-03-13T04:05:27.867Z,0.00
2019-03-13T04:06:27.861Z,0.00
2019-03-13T04:07:27.845Z,0.00
2019-03-13T04:08:27.884Z,0.00
2019-03-13T04:09:27.832Z,0.00
2019-03-13T04:10:27.813Z,0.00
2019-03-13T04:11:27.821Z,0.00
2019-03-13T04:12:27.826Z,0.00
2019-03-13T04:13:27.802Z,0.00
2019-03-13T04:14:27.809Z,0.00
2019-03-13T04:15:27.765Z,0.00
2019-03-13T04:16:27.783Z,0.00
2019-03-13T04:17:27.779Z,0.00
2019-03-13T04:18:27.743Z,0.00
2019-03-13T04:19:27.729Z,0.00
2019-03-13T04:20:27.738Z,0.00
2019-03-13T04:21:27.710Z,0.00
2019-03-13T04:22:27.695Z,0.00
2019-03-13T04:23:27.691Z,0.00
2019-03-13T04:24:27.786Z,0.00
2019-03-13T04:25:27.718Z,0.00
2019-03-13T04:26:27.673Z,0.00
2019-03-13T04:27:27.627Z,0.00
2019-03-13T04:28:27.632Z,0.00
2019-03-13T04:29:27.616Z,0.00
2019-03-13T04:30:27.596Z,0.00
2019-03-13T04:31:27.584Z,0.00
2019-03-13T04:32:27.621Z,0.00
2019-03-13T04:33:28.511Z,0.00
2019-03-13T04:34:27.551Z,0.00
2019-03-13T04:35:27.550Z,0.00
2019-03-13T04:36:27.568Z,0.00
2019-03-13T04:37:27.532Z,0.00
2019-03-13T04:38:27.554Z,0.00
2019-03-13T04:39:27.499Z,0.00
2019-03-13T04:40:27.486Z,0.00
2019-03-13T04:41:27.495Z,0.00
2019-03-13T04:42:27.491Z,0.00
2019-03-13T04:43:27.473Z,0.00
2019-03-13T04:44:27.477Z,0.00
2019-03-13T04:45:27.427Z,0.00
2019-03-13T04:46:27.420Z,0.00
2019-03-13T04:47:27.412Z,0.00
2019-03-13T04:48:27.415Z,0.00
2019-03-13T04:49:27.396Z,0.00
2019-03-13T04:50:27.421Z,0.00
2019-03-13T04:51:27.382Z,0.00
2019-03-13T04:52:27.362Z,0.00
2019-03-13T04:53:27.342Z,0.00
2019-03-13T04:54:27.333Z,0.00
2019-03-13T04:55:27.322Z,0.00
2019-03-13T04:56:27.374Z,0.00
2019-03-13T04:57:27.306Z,0.00
2019-03-13T04:58:27.288Z,0.00
2019-03-13T04:59:27.280Z,0.00
2019-03-13T05:00:27.281Z,0.00
2019-03-13T05:01:27.258Z,0.00
2019-03-13T05:02:27.290Z,0.00
2019-03-13T05:03:27.234Z,0.00
2019-03-13T05:04:27.230Z,0.00
2019-03-13T05:05:27.210Z,0.00
2019-03-13T05:06:27.210Z,0.00
2019-03-13T05:07:27.240Z,0.00
2019-03-13T05:08:27.225Z,0.00
2019-03-13T05:09:27.166Z,0.00
2019-03-13T05:10:27.169Z,0.00
2019-03-13T05:11:27.152Z,0.00
2019-03-13T05:12:27.130Z,0.00
2019-03-13T05:13:27.123Z,0.00
2019-03-13T05:14:27.172Z,0.00
2019-03-13T05:15:27.111Z,0.00
2019-03-13T05:16:27.102Z,0.00
2019-03-13T05:17:27.090Z,0.00
2019-03-13T05:18:27.069Z,0.00
2019-03-13T05:19:27.065Z,0.00
2019-03-13T05:20:27.083Z,0.00
2019-03-13T05:21:27.051Z,0.00
2019-03-13T05:22:27.035Z,0.00
2019-03-13T05:23:27.015Z,0.00
2019-03-13T05:24:27.002Z,0.00
2019-03-13T05:25:26.997Z,0.00
2019-03-13T05:26:27.014Z,0.00
2019-03-13T05:27:26.982Z,0.00
2019-03-13T05:28:26.974Z,0.00
2019-03-13T05:29:26.971Z,0.00
2019-03-13T05:30:26.950Z,0.00
2019-03-13T05:31:26.954Z,0.00
2019-03-13T05:32:26.968Z,0.00
2019-03-13T05:33:26.969Z,0.00
2019-03-13T05:34:26.913Z,0.00
2019-03-13T05:35:26.892Z,0.00
2019-03-13T05:36:26.873Z,0.00
2019-03-13T05:37:26.880Z,0.00
2019-03-13T05:38:26.885Z,0.00
2019-03-13T05:39:26.840Z,0.00
2019-03-13T05:40:26.830Z,0.00
2019-03-13T05:41:26.825Z,0.00
2019-03-13T05:42:26.821Z,0.00
2019-03-13T05:43:26.803Z,0.00
2019-03-13T05:44:26.930Z,0.00
2019-03-13T05:45:26.782Z,0.00
2019-03-13T05:46:26.768Z,0.00
2019-03-13T05:47:26.760Z,0.00
2019-03-13T05:48:26.747Z,0.00
2019-03-13T05:49:26.741Z,0.00
2019-03-13T05:50:26.759Z,0.00
2019-03-13T05:51:26.754Z,0.00
2019-03-13T05:52:26.713Z,0.00
2019-03-13T05:53:26.692Z,0.00
2019-03-13T05:54:26.753Z,0.00
2019-03-13T05:55:26.744Z,0.00
2019-03-13T05:56:26.709Z,0.00
2019-03-13T05:57:26.674Z,0.00
2019-03-13T05:58:26.668Z,0.00
2019-03-13T05:59:26.691Z,0.00
2019-03-13T06:00:26.661Z,0.00
2019-03-13T06:01:26.687Z,0.00
2019-03-13T06:02:26.664Z,0.00
2019-03-13T06:03:26.575Z,0.00
2019-03-13T06:04:26.592Z,0.00
2019-03-13T06:05:26.560Z,0.00
2019-03-13T06:06:26.546Z,5.62
2019-03-13T06:07:26.550Z,5.62
2019-03-13T06:08:26.587Z,5.62
2019-03-13T06:09:26.526Z,5.62
2019-03-13T06:10:26.505Z,5.62
2019-03-13T06:11:26.505Z,5.62
2019-03-13T06:12:26.508Z,5.62
2019-03-13T06:13:26.477Z,5.62
2019-03-13T06:14:26.627Z,5.62
2019-03-13T06:15:26.451Z,5.62
2019-03-13T06:16:26.459Z,5.62
2019-03-13T06:17:26.434Z,11.25
2019-03-13T06:18:26.411Z,11.25
2019-03-13T06:19:26.409Z,11.25
2019-03-13T06:20:26.433Z,11.25
2019-03-13T06:21:26.409Z,11.25
2019-03-13T06:22:26.375Z,11.25
2019-03-13T06:23:26.402Z,11.25
2019-03-13T06:24:26.369Z,11.25
2019-03-13T06:25:26.355Z,16.88
2019-03-13T06:26:26.395Z,16.88
2019-03-13T06:27:26.323Z,16.88
2019-03-13T06:28:26.337Z,16.88
2019-03-13T06:29:26.306Z,22.50
2019-03-13T06:30:26.314Z,22.50
2019-03-13T06:31:26.277Z,22.50
2019-03-13T06:32:26.323Z,22.50
2019-03-13T06:33:26.268Z,28.12
2019-03-13T06:34:26.279Z,28.12
2019-03-13T06:35:26.259Z,28.12
2019-03-13T06:36:26.231Z,28.12
2019-03-13T06:37:26.216Z,28.12
2019-03-13T06:38:26.234Z,28.12
2019-03-13T06:39:26.211Z,28.12
2019-03-13T06:40:26.187Z,33.75
2019-03-13T06:41:26.172Z,33.75
2019-03-13T06:42:26.172Z,33.75
2019-03-13T06:43:26.227Z,33.75
2019-03-13T06:44:26.194Z,33.75
2019-03-13T06:45:26.119Z,33.75
2019-03-13T06:46:26.127Z,33.75
2019-03-13T06:47:26.095Z,33.75
2019-03-13T06:48:26.087Z,33.75
2019-03-13T06:49:26.078Z,33.75
2019-03-13T06:50:26.112Z,33.75
2019-03-13T06:51:26.064Z,33.75
2019-03-13T06:52:26.052Z,33.75
2019-03-13T06:53:26.047Z,33.75
2019-03-13T06:54:26.053Z,33.75
2019-03-13T06:55:26.021Z,33.75
2019-03-13T06:56:28.055Z,33.75
2019-03-13T06:57:26.001Z,33.75
2019-03-13T06:58:25.995Z,39.38
2019-03-13T06:59:25.966Z,39.38
2019-03-13T07:00:26.044Z,39.38
2019-03-13T07:01:25.948Z,39.38
2019-03-13T07:02:26.034Z,45.00
2019-03-13T07:03:25.929Z,45.00
2019-03-13T07:04:25.954Z,45.00
2019-03-13T07:05:25.933Z,45.00
2019-03-13T07:06:25.947Z,45.00
2019-03-13T07:07:25.894Z,45.00
2019-03-13T07:08:25.923Z,45.00
2019-03-13T07:09:25.882Z,50.62
2019-03-13T07:10:25.858Z,50.62
2019-03-13T07:11:25.842Z,50.62
2019-03-13T07:12:25.822Z,56.25
2019-03-13T07:13:25.920Z,56.25
2019-03-13T07:14:25.879Z,56.25
2019-03-13T07:15:25.843Z,56.25
2019-03-13T07:16:25.799Z,56.25
2019-03-13T07:17:25.795Z,56.25
2019-03-13T07:18:25.765Z,61.88
2019-03-13T07:19:25.802Z,61.88
2019-03-13T07:20:25.784Z,61.88
2019-03-13T07:21:25.754Z,67.50
2019-03-13T07:22:25.732Z,67.50
2019-03-13T07:23:25.719Z,67.50
2019-03-13T07:24:25.686Z,67.50
2019-03-13T07:25:25.699Z,73.12
2019-03-13T07:26:25.696Z,73.12
2019-03-13T07:27:25.661Z,73.12
2019-03-13T07:28:25.679Z,78.75
2019-03-13T07:29:25.629Z,78.75
2019-03-13T07:30:25.682Z,84.38
2019-03-13T07:31:25.613Z,90.00
2019-03-13T07:32:25.650Z,90.00
2019-03-13T07:33:25.596Z,90.00
2019-03-13T07:34:25.588Z,90.00
2019-03-13T07:35:25.580Z,90.00
2019-03-13T07:36:25.591Z,95.62
2019-03-13T07:37:25.552Z,95.62
2019-03-13T07:38:25.593Z,95.62
2019-03-13T07:39:25.545Z,95.62
2019-03-13T07:40:25.542Z,90.00
2019-03-13T07:41:25.502Z,95.62
2019-03-13T07:42:25.499Z,95.62
2019-03-13T07:43:25.483Z,95.62
2019-03-13T07:44:25.521Z,95.62
2019-03-13T07:45:25.473Z,95.62
2019-03-13T07:46:25.460Z,95.62
2019-03-13T07:47:25.458Z,95.62
2019-03-13T07:48:25.445Z,101.25
2019-03-13T07:49:25.429Z,101.25
2019-03-13T07:50:25.432Z,106.88
2019-03-13T07:51:25.425Z,106.88
2019-03-13T07:52:25.396Z,106.88
2019-03-13T07:53:25.405Z,106.88
2019-03-13T07:54:25.408Z,106.88
2019-03-13T07:55:25.353Z,106.88
2019-03-13T07:56:25.370Z,101.25
2019-03-13T07:57:25.330Z,106.88
2019-03-13T07:58:25.334Z,112.50
2019-03-13T07:59:25.308Z,118.12
2019-03-13T08:00:25.296Z,123.75
2019-03-13T08:01:25.294Z,129.38
2019-03-13T08:02:25.299Z,123.75
2019-03-13T08:03:25.291Z,123.75
2019-03-13T08:04:25.265Z,118.12
2019-03-13T08:05:25.332Z,123.75
2019-03-13T08:06:25.242Z,123.75
2019-03-13T08:07:25.222Z,123.75
2019-03-13T08:08:25.228Z,129.38
2019-03-13T08:09:25.221Z,129.38
2019-03-13T08:10:25.193Z,135.00
2019-03-13T08:11:25.346Z,140.62
2019-03-13T08:12:25.163Z,140.62
2019-03-13T08:13:25.158Z,140.62
2019-03-13T08:14:25.210Z,140.62
2019-03-13T08:15:25.144Z,140.62
2019-03-13T08:16:25.117Z,140.62
2019-03-13T08:17:25.127Z,146.25
2019-03-13T08:18:25.184Z,151.88
2019-03-13T08:19:25.110Z,151.88
2019-03-13T08:20:25.124Z,157.50
2019-03-13T08:21:25.093Z,163.12
2019-03-13T08:22:25.057Z,157.50
2019-03-13T08:23:25.045Z,157.50
2019-03-13T08:24:25.050Z,157.50
2019-03-13T08:25:25.031Z,157.50
2019-03-13T08:26:25.058Z,157.50
2019-03-13T08:27:25.029Z,151.88
2019-03-13T08:28:25.030Z,151.88
2019-03-13T08:29:24.987Z,157.50
2019-03-13T08:30:24.975Z,157.50
2019-03-13T08:31:24.970Z,157.50
2019-03-13T08:32:24.993Z,163.12
2019-03-13T08:33:24.943Z,163.12
2019-03-13T08:34:24.940Z,163.12
2019-03-13T08:35:24.918Z,163.12
2019-03-13T08:36:24.910Z,168.75
2019-03-13T08:37:24.893Z,168.75
2019-03-13T08:38:24.915Z,168.75
2019-03-13T08:39:24.880Z,168.75
2019-03-13T08:40:24.866Z,168.75
2019-03-13T08:41:24.875Z,168.75
2019-03-13T08:42:24.924Z,174.38
2019-03-13T08:43:24.836Z,180.00
2019-03-13T08:44:24.856Z,180.00
2019-03-13T08:45:24.816Z,185.62
2019-03-13T08:46:24.825Z,185.62
2019-03-13T08:47:24.798Z,191.25
2019-03-13T08:48:24.769Z,196.88
2019-03-13T08:49:24.769Z,196.88
2019-03-13T08:50:24.789Z,196.88
2019-03-13T08:51:24.782Z,196.88
2019-03-13T08:52:24.807Z,191.25
2019-03-13T08:53:24.734Z,196.88
2019-03-13T08:54:24.716Z,196.88
2019-03-13T08:55:24.720Z,202.50
2019-03-13T08:56:24.761Z,202.50
2019-03-13T08:57:24.687Z,208.12
2019-03-13T08:58:24.676Z,213.75
2019-03-13T08:59:24.675Z,213.75
2019-03-13T09:00:24.684Z,208.12
2019-03-13T09:01:24.647Z,208.12
2019-03-13T09:02:24.641Z,219.38
2019-03-13T09:03:24.609Z,236.25
2019-03-13T09:04:24.593Z,247.50
2019-03-13T09:05:24.583Z,253.12
2019-03-13T09:06:24.669Z,247.50
2019-03-13T09:07:24.760Z,253.12
2019-03-13T09:08:24.628Z,253.12
2019-03-13T09:09:24.542Z,247.50
2019-03-13T09:10:24.550Z,247.50
2019-03-13T09:11:24.540Z,241.88
2019-03-13T09:12:24.505Z,236.25
2019-03-13T09:13:24.518Z,230.62
2019-03-13T09:14:24.521Z,225.00
2019-03-13T09:15:24.508Z,213.75
2019-03-13T09:16:24.485Z,208.12
2019-03-13T09:17:24.475Z,213.75
2019-03-13T09:18:24.468Z,208.12
2019-03-13T09:19:24.442Z,202.50
2019-03-13T09:20:24.465Z,202.50
2019-03-13T09:21:24.407Z,196.88
2019-03-13T09:22:24.430Z,196.88
2019-03-13T09:23:24.393Z,196.88
2019-03-13T09:24:24.383Z,196.88
2019-03-13T09:25:24.383Z,196.88
2019-03-13T09:26:24.430Z,202.50
2019-03-13T09:27:24.373Z,208.12
2019-03-13T09:28:24.355Z,213.75
2019-03-13T09:29:24.461Z,225.00
2019-03-13T09:30:24.377Z,230.62
2019-03-13T09:31:25.640Z,230.62
2019-03-13T09:32:24.373Z,236.25
2019-03-13T09:33:24.282Z,236.25
2019-03-13T09:34:24.291Z,230.62
2019-03-13T09:35:24.275Z,230.62
2019-03-13T09:36:24.247Z,241.88
2019-03-13T09:37:24.235Z,253.12
2019-03-13T09:38:24.262Z,270.00
2019-03-13T09:39:24.210Z,275.62
2019-03-13T09:40:24.203Z,281.25
2019-03-13T09:41:24.277Z,315.00
2019-03-13T09:42:24.188Z,303.75
2019-03-13T09:43:24.188Z,292.50
2019-03-13T09:44:24.238Z,292.50
2019-03-13T09:45:24.166Z,286.88
2019-03-13T09:46:24.157Z,292.50
2019-03-13T09:47:24.175Z,298.12
2019-03-13T09:48:24.151Z,292.50
2019-03-13T09:49:24.130Z,303.75
2019-03-13T09:50:24.194Z,337.50
2019-03-13T09:51:24.115Z,360.00
2019-03-13T09:52:24.157Z,540.00
2019-03-13T09:53:24.097Z,382.50
2019-03-13T09:54:24.072Z,331.88
2019-03-13T09:55:24.044Z,331.88
2019-03-13T09:56:24.074Z,320.62
2019-03-13T09:57:24.034Z,258.75
2019-03-13T09:58:24.008Z,264.38
2019-03-13T09:59:23.996Z,298.12
2019-03-13T10:00:23.998Z,303.75
2019-03-13T10:01:23.977Z,286.88
2019-03-13T10:02:23.992Z,275.62
2019-03-13T10:03:23.958Z,247.50
2019-03-13T10:04:23.942Z,247.50
2019-03-13T10:05:23.935Z,236.25
2019-03-13T10:06:23.931Z,292.50
2019-03-13T10:07:23.904Z,309.38
2019-03-13T10:08:23.938Z,315.00
2019-03-13T10:09:23.891Z,326.25
2019-03-13T10:10:23.871Z,348.75
2019-03-13T10:11:23.874Z,399.38
2019-03-13T10:12:23.882Z,388.12
2019-03-13T10:13:23.891Z,388.12
2019-03-13T10:14:26.589Z,371.25
2019-03-13T10:15:23.844Z,573.75
2019-03-13T10:16:23.818Z,1226.25
2019-03-13T10:17:23.800Z,500.62
2019-03-13T10:18:23.806Z,826.88
2019-03-13T10:19:23.778Z,466.88
2019-03-13T10:20:23.818Z,405.00
2019-03-13T10:21:23.771Z,365.62
2019-03-13T10:22:23.746Z,354.38
2019-03-13T10:23:23.738Z,360.00
2019-03-13T10:24:23.727Z,596.25
2019-03-13T10:25:23.722Z,376.88
2019-03-13T10:26:23.745Z,360.00
2019-03-13T10:27:23.700Z,371.25
2019-03-13T10:28:23.697Z,382.50
2019-03-13T10:29:23.671Z,315.00
2019-03-13T10:30:23.676Z,286.88
2019-03-13T10:31:23.645Z,253.12
2019-03-13T10:32:23.731Z,230.62
2019-03-13T10:33:23.634Z,208.12
2019-03-13T10:34:23.659Z,213.75
2019-03-13T10:35:23.635Z,230.62
2019-03-13T10:36:23.625Z,241.88
2019-03-13T10:37:23.578Z,371.25
2019-03-13T10:38:23.613Z,376.88
2019-03-13T10:39:23.565Z,815.62
2019-03-13T10:40:23.566Z,382.50
2019-03-13T10:41:23.539Z,393.75
2019-03-13T10:42:23.627Z,405.00
2019-03-13T10:43:23.524Z,405.00
2019-03-13T10:44:23.535Z,444.38
2019-03-13T10:45:23.545Z,990.00
2019-03-13T10:46:23.532Z,472.50
2019-03-13T10:47:23.494Z,399.38
2019-03-13T10:48:23.481Z,393.75
2019-03-13T10:49:23.457Z,416.25
2019-03-13T10:50:23.483Z,376.88
2019-03-13T10:51:23.438Z,354.38
2019-03-13T10:52:23.421Z,416.25
2019-03-13T10:53:23.412Z,793.12
2019-03-13T10:54:23.405Z,680.62
2019-03-13T10:55:23.389Z,489.38
2019-03-13T10:56:23.447Z,388.12
2019-03-13T10:57:23.382Z,303.75
2019-03-13T10:58:23.368Z,264.38
2019-03-13T10:59:23.376Z,253.12
2019-03-13T11:00:23.349Z,225.00
2019-03-13T11:01:23.318Z,180.00
2019-03-13T11:02:25.248Z,196.88
2019-03-13T11:03:23.358Z,202.50
2019-03-13T11:04:23.292Z,185.62
2019-03-13T11:05:23.287Z,202.50
2019-03-13T11:06:23.274Z,202.50
2019-03-13T11:07:23.324Z,208.12
2019-03-13T11:08:23.330Z,225.00
2019-03-13T11:09:23.331Z,253.12
2019-03-13T11:10:23.241Z,275.62
2019-03-13T11:11:23.211Z,286.88
2019-03-13T11:12:23.219Z,298.12
2019-03-13T11:13:23.219Z,298.12
2019-03-13T11:14:23.271Z,286.88
2019-03-13T11:15:23.191Z,281.25
2019-03-13T11:16:23.173Z,281.25
2019-03-13T11:17:23.182Z,292.50
2019-03-13T11:18:23.141Z,292.50
2019-03-13T11:19:23.146Z,303.75
2019-03-13T11:20:23.183Z,309.38
2019-03-13T11:21:23.174Z,303.75
2019-03-13T11:22:23.113Z,286.88
2019-03-13T11:23:23.100Z,264.38
2019-03-13T11:24:23.107Z,247.50
2019-03-13T11:25:23.083Z,230.62
2019-03-13T11:26:23.093Z,219.38
2019-03-13T11:27:23.071Z,213.75
2019-03-13T11:28:23.036Z,208.12
2019-03-13T11:29:23.041Z,185.62
2019-03-13T11:30:23.041Z,174.38
2019-03-13T11:31:23.022Z,180.00
2019-03-13T11:32:23.031Z,230.62
2019-03-13T11:33:22.993Z,270.00
2019-03-13T11:34:22.973Z,303.75
2019-03-13T11:35:22.965Z,286.88
2019-03-13T11:36:22.968Z,275.62
2019-03-13T11:37:22.954Z,247.50
2019-03-13T11:38:22.969Z,241.88
2019-03-13T11:39:22.910Z,247.50
2019-03-13T11:40:22.932Z,253.12
2019-03-13T11:41:22.908Z,236.25
2019-03-13T11:42:22.901Z,213.75
2019-03-13T11:43:22.899Z,174.38
2019-03-13T11:44:22.919Z,146.25
2019-03-13T11:45:22.843Z,135.00
2019-03-13T11:46:22.861Z,140.62
2019-03-13T11:47:22.833Z,146.25
2019-03-13T11:48:22.832Z,151.88
2019-03-13T11:49:22.801Z,168.75
2019-03-13T11:50:22.886Z,191.25
2019-03-13T11:51:22.869Z,208.12
2019-03-13T11:52:22.769Z,258.75
2019-03-13T11:53:22.780Z,331.88
2019-03-13T11:54:22.754Z,303.75
2019-03-13T11:55:22.769Z,241.88
2019-03-13T11:56:22.791Z,213.75
2019-03-13T11:57:22.743Z,196.88
2019-03-13T11:58:22.729Z,225.00
2019-03-13T11:59:22.716Z,208.12
2019-03-13T12:00:22.688Z,208.12
2019-03-13T12:01:22.668Z,213.75
2019-03-13T12:02:22.691Z,202.50
2019-03-13T12:03:22.681Z,202.50
2019-03-13T12:04:22.674Z,225.00
2019-03-13T12:05:22.652Z,241.88
2019-03-13T12:06:22.643Z,247.50
2019-03-13T12:07:22.632Z,275.62
2019-03-13T12:08:22.657Z,286.88
2019-03-13T12:09:22.589Z,286.88
2019-03-13T12:10:22.599Z,275.62
2019-03-13T12:11:22.579Z,286.88
2019-03-13T12:12:22.558Z,303.75
2019-03-13T12:13:22.552Z,292.50
2019-03-13T12:14:22.592Z,264.38
2019-03-13T12:15:22.545Z,292.50
2019-03-13T12:16:22.538Z,315.00
2019-03-13T12:17:22.513Z,326.25
2019-03-13T12:18:22.503Z,298.12
2019-03-13T12:19:22.515Z,264.38
2019-03-13T12:20:22.581Z,241.88
2019-03-13T12:21:22.462Z,241.88
2019-03-13T12:22:22.466Z,241.88
2019-03-13T12:23:22.470Z,225.00
2019-03-13T12:24:22.448Z,230.62
2019-03-13T12:25:22.419Z,213.75
2019-03-13T12:26:22.503Z,213.75
2019-03-13T12:27:22.448Z,219.38
2019-03-13T12:28:22.414Z,225.00
2019-03-13T12:29:22.391Z,225.00
2019-03-13T12:30:22.396Z,202.50
2019-03-13T12:31:22.370Z,185.62
2019-03-13T12:32:22.383Z,180.00
2019-03-13T12:33:22.340Z,168.75
2019-03-13T12:34:22.316Z,168.75
2019-03-13T12:35:22.312Z,168.75
2019-03-13T12:36:22.289Z,157.50
2019-03-13T12:37:22.328Z,163.12
2019-03-13T12:38:22.315Z,163.12
2019-03-13T12:39:22.271Z,157.50
2019-03-13T12:40:22.271Z,174.38
2019-03-13T12:41:22.263Z,185.62
2019-03-13T12:42:22.260Z,202.50
2019-03-13T12:43:22.240Z,174.38
2019-03-13T12:44:22.263Z,163.12
2019-03-13T12:45:22.195Z,163.12
2019-03-13T12:46:22.200Z,180.00
2019-03-13T12:47:22.184Z,151.88
2019-03-13T12:48:22.166Z,174.38
2019-03-13T12:49:22.162Z,191.25
2019-03-13T12:50:22.211Z,163.12
2019-03-13T12:51:22.128Z,185.62
2019-03-13T12:52:22.134Z,196.88
2019-03-13T12:53:22.111Z,208.12
2019-03-13T12:54:22.134Z,230.62